Time;durP1;ratioP1;P1;durP2;ratioP2;P2;SDS_P1;SDS_P2;PMS_P1;PMS_P2;Temp;Humidity;BMP_temperature;BMP_pressure;BME280_temperature;BME280_humidity;BME280_pressure;Samples;Min_cycle;Max_cycle;Signal;HPM_P1;HPM_P2
2023/03/30 00:12:49;;;;;;;9.70;5.38;;;;;;;6.28;62.45;100014.06;30616655;28;96715;-75
2023/03/30 00:27:50;;;;;;;9.77;4.80;;;;;;;6.36;62.55;100016.00;30615016;28;97328;-76
2023/03/30 00:42:50;;;;;;;7.75;4.60;;;;;;;6.47;62.84;100007.84;30612810;28;97241;-77
2023/03/30 00:57:52;;;;;;;6.65;4.00;;;;;;;6.39;63.50;99984.75;30612082;28;96813;-77
2023/03/30 01:12:53;;;;;;;8.73;4.60;;;;;;;6.37;63.74;99962.94;30612669;28;96628;-77
2023/03/30 01:28:04;;;;;;;7.18;4.82;;;;;;;6.42;63.82;99960.66;30610128;28;96958;-77
2023/03/30 01:43:18;;;;;;;7.32;4.18;;;;;;;6.35;63.72;99943.69;30609646;28;97809;-76
2023/03/30 01:58:27;;;;;;;6.93;4.27;;;;;;;6.37;64.02;99925.88;30623178;28;97288;-75
2023/03/30 02:13:30;;;;;;;9.48;4.32;;;;;;;6.32;64.75;99906.97;30626904;28;96659;-76
2023/03/30 02:28:31;;;;;;;7.80;4.25;;;;;;;6.26;65.18;99891.69;30626079;28;96663;-77
2023/03/30 02:43:57;;;;;;;10.07;4.93;;;;;;;6.26;65.43;99881.94;30624205;28;97410;-76
2023/03/30 02:59:04;;;;;;;9.45;4.70;;;;;;;6.35;65.48;99866.97;30621796;28;96676;-77
2023/03/30 03:14:06;;;;;;;6.47;4.32;;;;;;;6.46;65.64;99843.94;30620472;28;97379;-77
2023/03/30 03:29:07;;;;;;;11.48;5.63;;;;;;;6.62;65.15;99828.19;30619168;28;96842;-79
2023/03/30 03:44:07;;;;;;;8.95;4.93;;;;;;;6.62;65.19;99799.06;30617107;28;102922;-78
2023/03/30 03:59:07;;;;;;;7.72;4.57;;;;;;;6.65;65.12;99767.00;30614062;28;111002;-69
2023/03/30 04:14:07;;;;;;;9.90;4.95;;;;;;;6.59;65.54;99778.22;30609059;28;109887;-71
2023/03/30 04:29:08;;;;;;;14.45;8.80;;;;;;;6.53;66.63;99800.00;30611519;28;96689;-73
2023/03/30 04:44:09;;;;;;;6.95;4.82;;;;;;;6.62;67.04;99748.78;30609297;28;96684;-75
2023/03/30 04:59:09;;;;;;;7.05;3.20;;;;;;;6.61;67.70;99728.59;30609160;28;96674;-67
2023/03/30 05:14:10;;;;;;;10.88;6.13;;;;;;;6.64;67.85;99732.75;30607776;28;96696;-70
2023/03/30 05:29:10;;;;;;;5.35;3.63;;;;;;;6.78;67.92;99717.13;30612439;28;105097;-75
2023/03/30 05:44:10;;;;;;;9.52;5.53;;;;;;;6.86;68.03;99719.00;30620169;28;97039;-80
2023/03/30 05:59:11;;;;;;;8.13;5.30;;;;;;;7.61;68.27;99710.31;30620996;28;96860;-73
2023/03/30 06:14:12;;;;;;;12.20;5.97;;;;;;;8.02;66.84;99709.50;30622758;28;97015;-70
2023/03/30 06:29:12;;;;;;;8.63;5.22;;;;;;;8.17;66.31;99677.81;30620632;28;97122;-70
2023/03/30 06:44:16;;;;;;;7.97;3.47;;;;;;;8.39;66.05;99686.09;30618517;28;96755;-74
2023/03/30 06:59:16;;;;;;;9.17;5.50;;;;;;;8.90;66.24;99683.16;30615396;28;97886;-72
2023/03/30 07:14:16;;;;;;;9.73;4.85;;;;;;;9.60;64.78;99694.81;30617214;28;97316;-70
2023/03/30 07:29:17;;;;;;;7.82;4.82;;;;;;;10.36;62.43;99660.28;30616210;28;97365;-74
2023/03/30 07:44:17;;;;;;;5.70;3.60;;;;;;;10.68;62.34;99649.47;30612524;28;96744;-73
2023/03/30 07:59:19;;;;;;;7.47;5.00;;;;;;;12.04;60.58;99598.19;30612385;28;98263;-73
2023/03/30 08:14:19;;;;;;;7.93;4.60;;;;;;;13.56;57.68;99590.19;30610941;28;97446;-70
2023/03/30 08:29:20;;;;;;;7.22;3.42;;;;;;;13.71;55.04;99585.50;30608213;28;97463;-67
2023/03/30 08:44:37;;;;;;;6.80;3.80;;;;;;;13.37;55.57;99558.69;30608834;28;96732;-75
2023/03/30 08:59:56;;;;;;;6.80;2.80;;;;;;;15.72;52.72;99557.91;30610400;28;96696;-71
2023/03/30 09:15:02;;;;;;;6.03;3.57;;;;;;;18.44;47.49;99536.56;30626146;28;96832;-66
2023/03/30 09:30:22;;;;;;;8.03;3.60;;;;;;;21.18;39.90;99501.75;30506553;28;97102;-78
2023/03/30 09:45:29;;;;;;;6.97;3.37;;;;;;;26.03;31.63;99466.78;30506066;28;96777;-78
2023/03/30 10:00:31;;;;;;;6.87;3.30;;;;;;;22.13;33.35;99440.63;30504611;28;96754;-75
2023/03/30 10:15:37;;;;;;;8.07;3.60;;;;;;;18.64;39.96;99454.41;30501747;28;97561;-72
2023/03/30 10:30:38;;;;;;;10.47;4.73;;;;;;;22.17;38.88;99444.44;30500402;28;96647;-68
2023/03/30 10:45:43;;;;;;;9.80;3.47;;;;;;;30.95;26.07;99426.47;30527473;28;97772;-71
2023/03/30 11:01:17;;;;;;;9.60;5.70;;;;;;;24.27;29.05;99431.09;30618569;28;96793;-72
2023/03/30 11:16:49;;;;;;;6.37;3.23;;;;;;;21.25;34.12;99429.22;30617928;28;97733;-71
2023/03/30 11:32:01;;;;;;;7.23;3.70;;;;;;;17.34;41.93;99431.19;30611388;28;97531;-67
2023/03/30 11:47:11;;;;;;;9.43;3.33;;;;;;;16.92;42.37;99454.44;30614752;28;96783;-74
2023/03/30 12:03:00;;;;;;;7.00;3.33;;;;;;;15.28;47.26;99480.00;31202690;28;96933;-73
2023/03/30 12:18:36;;;;;;;5.23;3.23;;;;;;;14.49;49.68;99490.97;31139388;27;97012;-70
2023/03/30 12:33:48;;;;;;;8.90;4.10;;;;;;;14.07;51.92;99463.72;31191169;28;97087;-68
2023/03/30 12:49:04;;;;;;;6.20;3.77;;;;;;;14.55;52.81;99447.22;31195537;27;96766;-69
2023/03/30 13:04:09;;;;;;;10.40;3.93;;;;;;;14.48;54.23;99425.00;31165247;27;97737;-66
2023/03/30 13:19:26;;;;;;;6.57;3.10;;;;;;;14.26;55.25;99424.50;31110618;28;97297;-65
2023/03/30 13:35:04;;;;;;;6.53;3.73;;;;;;;14.06;56.25;99416.53;31110472;28;96792;-69
2023/03/30 13:50:13;;;;;;;7.50;3.57;;;;;;;13.93;57.44;99366.53;31107783;28;97298;-63
2023/03/30 14:05:26;;;;;;;5.90;2.90;;;;;;;14.04;57.74;99354.34;31108357;28;96773;-67
2023/03/30 14:20:46;;;;;;;7.47;2.63;;;;;;;13.99;57.33;99305.94;31104763;28;97468;-68
2023/03/30 14:35:58;;;;;;;5.53;2.50;;;;;;;13.84;57.83;99253.50;31103498;28;97318;-65
2023/03/30 14:51:06;;;;;;;6.03;2.90;;;;;;;13.54;58.24;99286.19;31093487;28;97027;-68
2023/03/30 15:06:08;;;;;;;5.33;2.60;;;;;;;13.53;58.52;99308.63;31094827;28;98856;-67
2023/03/30 15:21:11;;;;;;;6.60;3.53;;;;;;;13.32;59.09;99274.91;31100561;28;97729;-62
2023/03/30 15:36:34;;;;;;;5.20;2.70;;;;;;;13.19;59.60;99275.78;31096465;28;97847;-73
2023/03/30 15:51:38;;;;;;;6.47;2.37;;;;;;;13.15;60.08;99245.13;31095865;28;96765;-67
2023/03/30 16:06:38;;;;;;;6.40;3.30;;;;;;;13.00;60.55;99239.22;31095772;28;96747;-66
2023/03/30 16:21:39;;;;;;;4.32;2.60;;;;;;;12.95;61.26;99214.97;31093520;28;96759;-66
2023/03/30 16:36:39;;;;;;;4.60;2.30;;;;;;;12.93;61.30;99220.50;31096751;28;97093;-67
2023/03/30 16:51:40;;;;;;;6.00;3.22;;;;;;;13.04;61.69;99214.50;31111977;28;96747;-66
2023/03/30 17:06:40;;;;;;;5.22;3.00;;;;;;;12.95;62.03;99241.69;31112416;28;97594;-67
2023/03/30 17:21:44;;;;;;;5.50;3.10;;;;;;;12.61;62.82;99241.72;31111158;28;96760;-66
2023/03/30 17:36:45;;;;;;;5.37;3.13;;;;;;;12.33;63.38;99260.66;31110282;28;96704;-64
2023/03/30 17:51:45;;;;;;;5.35;3.40;;;;;;;12.30;63.32;99243.19;31108280;28;96804;-64
2023/03/30 18:06:47;;;;;;;5.72;3.25;;;;;;;12.43;63.98;99255.72;31107261;28;96591;-65
2023/03/30 18:21:47;;;;;;;8.47;4.40;;;;;;;12.52;64.04;99248.28;31107662;28;97773;-66
2023/03/30 18:36:48;;;;;;;8.23;4.47;;;;;;;12.47;64.02;99267.63;31104753;28;114364;-66
2023/03/30 18:51:48;;;;;;;13.13;6.00;;;;;;;12.44;64.33;99273.38;31103444;28;109913;-67
2023/03/30 19:06:49;;;;;;;6.63;4.38;;;;;;;12.61;65.05;99315.72;31101484;28;96831;-67
2023/03/30 19:21:53;;;;;;;6.13;4.18;;;;;;;12.66;64.08;99324.75;31099936;28;96703;-64
2023/03/30 19:36:54;;;;;;;6.57;2.63;;;;;;;12.44;63.48;99364.19;31089785;28;96981;-64
2023/03/30 19:51:54;;;;;;;4.53;2.05;;;;;;;11.92;65.34;99339.78;31090278;28;97003;-64
2023/03/30 20:06:55;;;;;;;3.83;1.60;;;;;;;11.48;66.21;99357.03;31097851;28;96937;-64
2023/03/30 20:21:59;;;;;;;3.50;2.13;;;;;;;10.99;66.84;99369.44;31109421;28;97361;-65
2023/03/30 20:36:59;;;;;;;4.30;1.97;;;;;;;10.66;68.36;99357.47;31118235;28;97214;-64
2023/03/30 20:52:00;;;;;;;5.28;2.17;;;;;;;10.20;69.17;99363.13;31116791;28;109717;-62
2023/03/30 21:07:00;;;;;;;4.90;2.75;;;;;;;9.70;70.11;99378.88;31113078;28;96682;-62
2023/03/30 21:22:01;;;;;;;9.60;6.10;;;;;;;9.17;71.27;99372.81;31114029;28;96852;-62
2023/03/30 21:37:01;;;;;;;8.32;4.15;;;;;;;8.77;72.07;99373.81;31112628;28;96658;-61
2023/03/30 21:52:02;;;;;;;8.63;4.45;;;;;;;8.64;73.84;99379.75;31113908;28;96653;-62
2023/03/30 22:07:03;;;;;;;5.57;2.97;;;;;;;8.72;73.61;99385.97;31111012;28;97512;-61
2023/03/30 22:22:04;;;;;;;5.53;2.42;;;;;;;8.46;73.76;99358.81;31110217;28;104556;-60
2023/03/30 22:37:04;;;;;;;4.53;2.30;;;;;;;8.29;73.18;99365.19;31107998;28;96625;-60
2023/03/30 22:52:05;;;;;;;6.05;2.78;;;;;;;8.13;73.81;99361.63;31107070;28;103837;-62
2023/03/30 23:07:09;;;;;;;7.63;2.77;;;;;;;7.96;73.96;99355.59;31106741;28;97487;-61
2023/03/30 23:22:10;;;;;;;5.67;2.80;;;;;;;8.10;74.46;99351.34;31105496;28;96670;-61
2023/03/30 23:37:11;;;;;;;4.57;2.33;;;;;;;8.51;73.87;99338.88;31103761;28;97223;-61
2023/03/30 23:52:11;;;;;;;4.45;2.10;;;;;;;8.69;73.46;99343.88;31101602;28;96720;-60
